createdAt,value
2023-05-05T00:00:13.650Z,2.81
2023-05-05T00:02:40.193Z,2.51
2023-05-05T00:05:07.740Z,2.48
2023-05-05T00:07:36.340Z,2.40
2023-05-05T00:10:02.928Z,2.72
2023-05-05T00:12:30.546Z,2.77
2023-05-05T00:14:57.129Z,2.79
2023-05-05T00:17:24.732Z,2.75
2023-05-05T00:19:52.292Z,2.65
2023-05-05T00:22:19.902Z,2.66
2023-05-05T00:24:46.767Z,2.72
2023-05-05T00:27:13.238Z,2.62
2023-05-05T00:29:39.659Z,2.79
2023-05-05T00:32:06.071Z,2.72
2023-05-05T00:34:33.807Z,2.82
2023-05-05T00:37:00.412Z,2.80
2023-05-05T00:39:27.024Z,2.91
2023-05-05T00:41:55.650Z,2.56
2023-05-05T00:44:24.221Z,2.94
2023-05-05T00:46:51.855Z,2.64
2023-05-05T00:49:19.409Z,2.60
2023-05-05T00:51:47.004Z,2.64
2023-05-05T00:54:13.584Z,2.40
2023-05-05T00:56:40.161Z,2.44
2023-05-05T00:59:07.764Z,2.63
2023-05-05T01:01:34.420Z,2.38
2023-05-05T01:04:02.025Z,2.48
2023-05-05T01:06:29.540Z,2.42
2023-05-05T01:08:57.109Z,2.43
2023-05-05T01:11:23.739Z,2.34
2023-05-05T01:13:50.308Z,2.42
2023-05-05T01:16:18.916Z,2.42
2023-05-05T01:18:46.517Z,2.54
2023-05-05T01:21:13.083Z,2.98
2023-05-05T01:23:40.679Z,2.94
2023-05-05T01:26:07.288Z,2.60
2023-05-05T01:28:34.865Z,2.42
2023-05-05T01:31:02.480Z,2.32
2023-05-05T01:33:29.061Z,2.22
2023-05-05T01:35:55.677Z,2.26
2023-05-05T01:38:22.495Z,2.37
2023-05-05T01:40:49.850Z,2.10
2023-05-05T01:43:16.481Z,2.28
2023-05-05T01:45:43.080Z,2.31
2023-05-05T01:48:09.672Z,2.38
2023-05-05T01:50:36.258Z,2.46
2023-05-05T01:53:03.116Z,2.26
2023-05-05T01:55:30.439Z,2.51
2023-05-05T01:57:58.029Z,2.60
2023-05-05T02:00:26.654Z,2.61
2023-05-05T02:02:54.302Z,2.61
2023-05-05T02:05:21.797Z,2.82
2023-05-05T02:07:48.245Z,2.54
2023-05-05T02:10:14.659Z,2.53
2023-05-05T02:12:41.152Z,2.38
2023-05-05T02:15:08.225Z,2.38
2023-05-05T02:17:35.836Z,2.37
2023-05-05T02:20:03.397Z,2.66
2023-05-05T02:22:29.985Z,2.49
2023-05-05T02:24:56.600Z,2.59
2023-05-05T02:27:23.177Z,2.54
2023-05-05T02:29:51.771Z,2.50
2023-05-05T02:32:18.347Z,2.45
2023-05-05T02:34:45.948Z,2.65
2023-05-05T02:37:12.552Z,2.62
2023-05-05T02:39:40.125Z,2.57
2023-05-05T02:42:06.709Z,2.75
2023-05-05T02:44:34.310Z,2.58
2023-05-05T02:47:01.900Z,2.42
2023-05-05T02:49:29.482Z,2.70
2023-05-05T02:51:56.096Z,2.36
2023-05-05T02:54:22.679Z,2.68
2023-05-05T02:56:50.263Z,2.45
2023-05-05T02:59:17.848Z,2.50
2023-05-05T03:01:45.487Z,2.51
2023-05-05T03:04:11.987Z,2.65
2023-05-05T03:06:38.414Z,2.54
2023-05-05T03:09:04.836Z,2.62
2023-05-05T03:11:31.285Z,2.63
2023-05-05T03:13:57.705Z,2.67
2023-05-05T03:16:24.148Z,2.62
2023-05-05T03:18:50.585Z,2.46
2023-05-05T03:21:17.023Z,2.68
2023-05-05T03:23:43.764Z,2.61
2023-05-05T03:26:11.365Z,2.79
2023-05-05T03:28:37.933Z,2.71
2023-05-05T03:31:06.530Z,2.65
2023-05-05T03:33:32.992Z,2.65
2023-05-05T03:35:59.717Z,2.60
2023-05-05T03:38:28.322Z,18.02
2023-05-05T03:40:55.913Z,18.10
2023-05-05T03:43:22.495Z,24.94
2023-05-05T03:45:49.125Z,18.20
2023-05-05T03:48:17.684Z,7.79
2023-05-05T03:50:46.421Z,4.55
2023-05-05T03:53:13.869Z,3.15
2023-05-05T03:55:41.461Z,2.89
2023-05-05T03:58:08.033Z,2.56
2023-05-05T04:00:36.638Z,2.47
2023-05-05T04:03:04.354Z,2.52
2023-05-05T04:05:31.823Z,2.46
2023-05-05T04:07:58.449Z,2.76
2023-05-05T04:10:25.268Z,2.62
2023-05-05T04:12:52.677Z,2.54
2023-05-05T04:15:20.185Z,2.55
2023-05-05T04:17:46.804Z,3.02
2023-05-05T04:20:13.679Z,2.70
2023-05-05T04:22:40.098Z,2.48
2023-05-05T04:25:06.524Z,3.13
2023-05-05T04:27:32.982Z,2.85
2023-05-05T04:29:59.491Z,3.05
2023-05-05T04:32:25.950Z,2.65
2023-05-05T04:34:52.422Z,3.04
2023-05-05T04:37:19.515Z,2.95
2023-05-05T04:39:47.044Z,3.13
2023-05-05T04:42:13.621Z,3.06
2023-05-05T04:44:40.232Z,2.82
2023-05-05T04:47:06.736Z,2.66
2023-05-05T04:49:33.144Z,2.71
2023-05-05T04:51:59.623Z,2.68
2023-05-05T04:54:26.604Z,2.64
2023-05-05T04:56:54.206Z,2.69
2023-05-05T04:59:21.780Z,2.61
2023-05-05T05:01:50.448Z,2.59
2023-05-05T05:04:16.906Z,2.69
2023-05-05T05:06:43.339Z,2.44
2023-05-05T05:09:09.754Z,2.52
2023-05-05T05:11:37.841Z,2.58
2023-05-05T05:14:05.386Z,2.71
2023-05-05T05:16:34.012Z,2.64
2023-05-05T05:19:01.886Z,2.60
2023-05-05T05:21:28.508Z,2.73
2023-05-05T05:23:54.956Z,3.38
2023-05-05T05:26:21.372Z,3.09
2023-05-05T05:28:47.954Z,3.15
2023-05-05T05:31:16.554Z,3.32
2023-05-05T05:33:43.145Z,2.92
2023-05-05T05:36:10.729Z,2.85
2023-05-05T05:38:37.319Z,2.84
2023-05-05T05:41:03.895Z,2.96
2023-05-05T05:43:30.472Z,2.87
2023-05-05T05:45:57.135Z,3.06
2023-05-05T05:48:24.678Z,4.03
2023-05-05T05:50:52.244Z,3.96
2023-05-05T05:53:18.832Z,3.15
2023-05-05T05:55:45.279Z,3.30
2023-05-05T05:58:12.000Z,3.17
2023-05-05T06:00:38.600Z,3.36
2023-05-05T06:03:05.308Z,3.46
2023-05-05T06:05:32.765Z,3.17
2023-05-05T06:07:59.424Z,3.09
2023-05-05T06:10:28.247Z,3.09
2023-05-05T06:12:55.618Z,3.26
2023-05-05T06:15:23.185Z,3.44
2023-05-05T06:17:50.785Z,4.02
2023-05-05T06:20:18.372Z,3.94
2023-05-05T06:22:45.917Z,3.87
2023-05-05T06:25:12.596Z,3.49
2023-05-05T06:27:39.155Z,3.86
2023-05-05T06:30:08.029Z,5.35
2023-05-05T06:32:35.425Z,4.18
2023-05-05T06:35:03.018Z,4.15
2023-05-05T06:37:30.641Z,3.61
2023-05-05T06:39:57.254Z,3.59
2023-05-05T06:42:25.833Z,3.58
2023-05-05T06:44:54.753Z,3.52
2023-05-05T06:47:21.180Z,3.60
2023-05-05T06:49:50.105Z,3.60
2023-05-05T06:52:17.194Z,3.34
2023-05-05T06:54:43.784Z,3.75
2023-05-05T06:57:11.416Z,4.17
2023-05-05T06:59:37.851Z,4.20
2023-05-05T07:02:04.351Z,4.36
2023-05-05T07:04:30.823Z,4.39
2023-05-05T07:06:57.894Z,3.98
2023-05-05T07:09:25.340Z,4.16
2023-05-05T07:11:53.947Z,4.75
2023-05-05T07:14:24.164Z,3.89
2023-05-05T07:16:51.192Z,4.14
2023-05-05T07:19:18.741Z,3.91
2023-05-05T07:21:47.325Z,4.09
2023-05-05T07:24:13.902Z,3.97
2023-05-05T07:26:40.486Z,4.85
2023-05-05T07:29:07.100Z,4.92
2023-05-05T07:31:34.970Z,4.44
2023-05-05T07:39:48.633Z,4.70
2023-05-05T07:42:18.449Z,5.03
2023-05-05T07:50:27.216Z,4.66
2023-05-05T07:53:02.493Z,4.98
2023-05-05T07:55:42.756Z,4.77
2023-05-05T07:58:19.520Z,4.94
2023-05-05T08:17:02.575Z,4.26
2023-05-05T08:19:30.335Z,4.51
2023-05-05T08:27:27.613Z,4.43
2023-05-05T08:32:39.501Z,4.01
2023-05-05T08:43:08.139Z,3.20
2023-05-05T08:45:40.009Z,4.03
2023-05-05T08:56:11.369Z,4.05
2023-05-05T08:58:41.184Z,3.74
2023-05-05T09:06:39.309Z,3.43
2023-05-05T09:11:51.263Z,3.10
2023-05-05T09:17:12.377Z,3.34
2023-05-05T09:19:55.470Z,3.54
2023-05-05T09:25:11.273Z,3.24
2023-05-05T09:33:08.601Z,3.19
2023-05-05T09:38:20.337Z,2.92
2023-05-05T09:40:54.121Z,2.91
2023-05-05T09:43:43.462Z,2.84
2023-05-05T09:49:02.323Z,2.74
2023-05-05T09:51:51.303Z,2.73
2023-05-05T09:54:19.282Z,2.64
2023-05-05T09:59:35.574Z,2.27
2023-05-05T10:04:52.516Z,2.26
2023-05-05T10:18:12.998Z,2.38
2023-05-05T10:31:37.459Z,2.46
2023-05-05T10:34:07.152Z,2.33
2023-05-05T10:42:17.866Z,2.53
2023-05-05T10:47:25.234Z,2.78
2023-05-05T10:55:30.925Z,2.19
2023-05-05T11:00:46.496Z,2.36
2023-05-05T11:03:36.891Z,2.19
2023-05-05T11:06:08.511Z,2.28
2023-05-05T11:08:47.970Z,2.35
2023-05-05T11:11:41.141Z,2.31
2023-05-05T11:14:10.673Z,2.35
2023-05-05T11:16:40.631Z,2.34
2023-05-05T11:22:05.019Z,2.48
2023-05-05T11:27:21.692Z,2.30
2023-05-05T11:29:58.399Z,2.40
2023-05-05T11:40:44.160Z,1.90
2023-05-05T11:45:54.122Z,1.88
2023-05-05T11:51:03.630Z,1.86
2023-05-05T11:53:38.139Z,1.83
2023-05-05T11:56:05.847Z,1.79
2023-05-05T11:58:35.509Z,1.80
2023-05-05T12:01:05.017Z,1.70
2023-05-05T12:03:33.738Z,1.74
2023-05-05T12:06:05.087Z,1.88
2023-05-05T12:08:33.838Z,1.89
2023-05-05T12:11:02.880Z,1.77
2023-05-05T12:13:32.045Z,1.87
2023-05-05T12:16:09.656Z,2.01
2023-05-05T12:18:37.265Z,1.94
2023-05-05T12:21:07.309Z,2.02
2023-05-05T12:23:36.469Z,2.05
2023-05-05T12:26:07.994Z,2.01
2023-05-05T12:31:15.446Z,1.85
2023-05-05T12:33:42.908Z,1.84
2023-05-05T12:36:09.783Z,2.00
2023-05-05T12:38:38.103Z,1.92
2023-05-05T12:41:06.716Z,1.90
2023-05-05T12:43:34.628Z,2.01
2023-05-05T12:46:03.530Z,1.84
2023-05-05T12:48:30.470Z,1.94
2023-05-05T12:50:58.096Z,2.14
2023-05-05T12:53:25.650Z,2.18
2023-05-05T12:55:52.254Z,2.08
2023-05-05T12:58:19.848Z,2.08
2023-05-05T13:00:48.468Z,1.97
2023-05-05T13:03:16.087Z,2.07
2023-05-05T13:05:43.630Z,2.30
2023-05-05T13:08:10.263Z,2.44
2023-05-05T13:10:39.240Z,2.64
2023-05-05T13:13:06.590Z,3.46
2023-05-05T13:15:34.145Z,3.91
2023-05-05T13:18:01.952Z,4.30
2023-05-05T13:20:29.399Z,4.34
2023-05-05T13:22:56.059Z,4.98
2023-05-05T13:25:23.647Z,4.73
2023-05-05T13:27:50.540Z,4.36
2023-05-05T13:30:17.901Z,3.93
2023-05-05T13:32:45.522Z,4.17
2023-05-05T13:35:15.983Z,4.30
2023-05-05T13:37:43.705Z,4.77
2023-05-05T13:40:11.283Z,5.07
2023-05-05T13:42:43.875Z,5.17
2023-05-05T13:51:21.905Z,5.37
2023-05-05T14:24:36.992Z,3.91
2023-05-05T14:27:12.908Z,4.06
2023-05-05T14:32:33.713Z,3.61
2023-05-05T14:35:00.634Z,3.99
2023-05-05T14:37:31.011Z,3.98
2023-05-05T14:40:09.817Z,3.56
2023-05-05T14:42:37.714Z,3.83
2023-05-05T14:45:07.544Z,3.60
2023-05-05T14:47:42.001Z,3.79
2023-05-05T14:50:14.395Z,4.03
2023-05-05T14:52:43.555Z,3.63
2023-05-05T14:55:12.643Z,5.09
2023-05-05T14:57:41.917Z,19.16
2023-05-05T15:00:09.734Z,33.47
2023-05-05T15:02:38.377Z,14.45
2023-05-05T15:05:08.171Z,3.86
2023-05-05T15:07:35.571Z,3.73
2023-05-05T15:10:05.332Z,3.72
2023-05-05T15:12:32.743Z,3.59
2023-05-05T15:15:02.027Z,3.14
2023-05-05T15:17:29.972Z,3.25
2023-05-05T15:19:59.036Z,3.39
2023-05-05T15:22:27.193Z,3.27
2023-05-05T15:24:56.184Z,3.26
2023-05-05T15:27:24.415Z,3.00
2023-05-05T15:29:53.575Z,2.84
2023-05-05T15:32:20.820Z,3.03
2023-05-05T15:34:49.003Z,2.81
2023-05-05T15:37:18.743Z,2.58
2023-05-05T15:39:47.340Z,2.59
2023-05-05T15:42:15.156Z,2.68
2023-05-05T15:44:42.526Z,2.91
2023-05-05T15:47:10.154Z,2.71
2023-05-05T15:49:38.709Z,2.97
2023-05-05T15:52:06.278Z,3.08
2023-05-05T15:54:33.930Z,2.64
2023-05-05T15:57:01.467Z,2.69
2023-05-05T15:59:29.066Z,2.55
2023-05-05T16:01:57.635Z,2.59
2023-05-05T16:04:26.250Z,2.79
2023-05-05T16:06:54.879Z,3.07
2023-05-05T16:09:23.451Z,3.00
2023-05-05T16:11:51.098Z,2.69
2023-05-05T16:14:18.647Z,2.72
2023-05-05T16:16:48.289Z,2.80
2023-05-05T16:19:16.880Z,2.86
2023-05-05T16:21:44.452Z,2.60
2023-05-05T16:24:13.062Z,2.46
2023-05-05T16:26:40.653Z,2.54
2023-05-05T16:29:08.256Z,2.54
2023-05-05T16:31:35.887Z,2.35
2023-05-05T16:34:03.466Z,2.46
2023-05-05T16:36:29.923Z,2.46
2023-05-05T16:38:57.667Z,2.40
2023-05-05T16:41:26.778Z,2.51
2023-05-05T16:43:53.848Z,2.61
2023-05-05T16:46:20.385Z,2.54
2023-05-05T16:48:47.025Z,2.37
2023-05-05T16:51:14.636Z,2.18
2023-05-05T16:53:42.203Z,2.10
2023-05-05T16:56:09.873Z,2.28
2023-05-05T16:58:38.812Z,2.17
2023-05-05T17:01:06.049Z,2.35
2023-05-05T17:03:34.994Z,1.89
2023-05-05T17:06:02.315Z,1.54
2023-05-05T17:08:29.910Z,1.55
2023-05-05T17:10:59.153Z,1.27
2023-05-05T17:13:27.038Z,1.51
2023-05-05T17:15:55.924Z,1.66
2023-05-05T17:18:25.246Z,1.67
2023-05-05T17:20:51.965Z,1.54
2023-05-05T17:23:19.591Z,1.71
2023-05-05T17:25:47.144Z,1.43
2023-05-05T17:28:14.752Z,1.47
2023-05-05T17:30:41.870Z,1.40
2023-05-05T17:33:08.384Z,1.27
2023-05-05T17:35:35.861Z,1.42
2023-05-05T17:38:03.465Z,1.65
2023-05-05T17:40:30.062Z,1.45
2023-05-05T17:42:58.464Z,1.55
2023-05-05T17:45:26.051Z,1.70
2023-05-05T17:47:55.446Z,1.60
2023-05-05T17:50:22.326Z,1.61
2023-05-05T17:52:49.870Z,1.91
2023-05-05T17:55:16.496Z,1.57
2023-05-05T17:57:45.106Z,1.54
2023-05-05T18:00:11.712Z,1.55
2023-05-05T18:02:46.044Z,1.80
2023-05-05T18:05:13.920Z,1.61
2023-05-05T18:07:41.511Z,1.54
2023-05-05T18:10:09.097Z,1.63
2023-05-05T18:12:36.745Z,1.78
2023-05-05T18:15:03.665Z,1.62
2023-05-05T18:17:30.948Z,1.75
2023-05-05T18:19:58.536Z,1.75
2023-05-05T18:22:25.343Z,1.89
2023-05-05T18:24:52.716Z,1.61
2023-05-05T18:27:20.355Z,1.70
2023-05-05T18:29:47.893Z,1.75
2023-05-05T18:32:15.486Z,1.85
2023-05-05T18:34:44.137Z,1.71
2023-05-05T18:37:11.691Z,2.11
2023-05-05T18:39:39.336Z,2.90
2023-05-05T18:42:06.917Z,2.15
2023-05-05T18:44:34.512Z,2.29
2023-05-05T18:47:02.221Z,2.54
2023-05-05T18:49:31.266Z,2.57
2023-05-05T18:51:58.334Z,2.06
2023-05-05T18:54:24.934Z,2.04
2023-05-05T18:56:51.504Z,1.69
2023-05-05T18:59:19.110Z,1.78
2023-05-05T19:01:46.701Z,1.71
2023-05-05T19:04:27.175Z,1.71
2023-05-05T19:06:58.048Z,1.63
2023-05-05T19:09:25.634Z,1.72
2023-05-05T19:11:52.211Z,1.68
2023-05-05T19:14:21.201Z,1.74
2023-05-05T19:16:48.445Z,1.80
2023-05-05T19:19:15.977Z,1.98
2023-05-05T19:21:43.550Z,1.80
2023-05-05T19:24:11.152Z,1.82
2023-05-05T19:26:38.732Z,1.93
2023-05-05T19:29:06.350Z,1.85
2023-05-05T19:31:33.227Z,1.82
2023-05-05T19:34:00.521Z,1.78
2023-05-05T19:36:28.117Z,1.99
2023-05-05T19:38:55.699Z,1.79
2023-05-05T19:41:22.311Z,2.15
2023-05-05T19:43:50.909Z,2.01
2023-05-05T19:46:18.507Z,1.90
2023-05-05T19:48:47.093Z,1.76
2023-05-05T19:51:14.670Z,1.54
2023-05-05T19:53:42.295Z,1.71
2023-05-05T19:56:09.162Z,1.84
2023-05-05T19:58:37.441Z,1.56
2023-05-05T20:01:05.089Z,1.55
2023-05-05T20:03:32.754Z,1.70
2023-05-05T20:06:01.429Z,1.77
2023-05-05T20:08:30.197Z,1.74
2023-05-05T20:10:58.434Z,1.49
2023-05-05T20:13:26.010Z,1.61
2023-05-05T20:15:53.654Z,1.55
2023-05-05T20:18:20.413Z,1.60
2023-05-05T20:20:49.530Z,1.59
2023-05-05T20:23:16.366Z,1.48
2023-05-05T20:25:42.988Z,1.62
2023-05-05T20:28:10.559Z,1.62
2023-05-05T20:30:38.150Z,1.51
2023-05-05T20:33:07.264Z,1.67
2023-05-05T20:35:34.361Z,1.82
2023-05-05T20:38:03.376Z,1.77
2023-05-05T20:40:30.843Z,1.73
2023-05-05T20:42:58.188Z,1.85
2023-05-05T20:45:25.221Z,1.86
2023-05-05T20:47:52.403Z,1.58
2023-05-05T20:50:21.300Z,1.84
2023-05-05T20:52:48.561Z,1.79
2023-05-05T20:55:16.205Z,1.82
2023-05-05T20:57:43.793Z,1.86
2023-05-05T21:00:13.031Z,1.78
2023-05-05T21:02:41.462Z,1.83
2023-05-05T21:05:09.893Z,1.72
2023-05-05T21:07:37.524Z,1.81
2023-05-05T21:10:06.169Z,1.86
2023-05-05T21:12:34.774Z,2.09
2023-05-05T21:15:03.332Z,2.07
2023-05-05T21:17:31.937Z,1.86
2023-05-05T21:19:59.575Z,1.90
2023-05-05T21:22:27.157Z,1.84
2023-05-05T21:24:55.768Z,1.85
2023-05-05T21:27:22.523Z,2.10
2023-05-05T21:29:49.361Z,1.84
2023-05-05T21:32:16.837Z,1.91
2023-05-05T21:34:44.452Z,2.01
2023-05-05T21:37:12.002Z,1.87
2023-05-05T21:39:41.845Z,2.01
2023-05-05T21:42:10.214Z,1.87
2023-05-05T21:44:39.166Z,2.08
2023-05-05T21:47:07.412Z,2.04
2023-05-05T21:49:35.989Z,1.98
2023-05-05T21:52:03.590Z,2.00
2023-05-05T21:54:31.255Z,1.83
2023-05-05T21:56:59.779Z,1.92
2023-05-05T21:59:28.839Z,1.94
2023-05-05T22:01:57.098Z,1.98
2023-05-05T22:04:23.954Z,2.00
2023-05-05T22:06:53.082Z,2.34
2023-05-05T22:09:20.749Z,2.08
2023-05-05T22:11:48.341Z,2.03
2023-05-05T22:14:15.953Z,2.06
2023-05-05T22:16:44.553Z,1.98
2023-05-05T22:19:12.105Z,1.94
2023-05-05T22:21:40.788Z,1.79
2023-05-05T22:24:08.309Z,1.94
2023-05-05T22:26:35.147Z,1.94
2023-05-05T22:29:03.522Z,2.14
2023-05-05T22:31:31.159Z,2.03
2023-05-05T22:33:58.681Z,1.94
2023-05-05T22:36:26.514Z,2.05
2023-05-05T22:38:53.895Z,2.04
2023-05-05T22:41:21.510Z,1.90
2023-05-05T22:43:49.046Z,1.90
2023-05-05T22:46:17.665Z,1.77
2023-05-05T22:48:46.425Z,1.79
2023-05-05T22:51:13.839Z,1.88
2023-05-05T22:53:42.429Z,1.86
2023-05-05T22:56:10.022Z,1.97
2023-05-05T22:58:38.652Z,2.10
2023-05-05T23:01:06.278Z,2.05
2023-05-05T23:03:33.830Z,2.09
2023-05-05T23:06:01.443Z,1.95
2023-05-05T23:08:29.029Z,2.01
2023-05-05T23:10:58.125Z,2.16
2023-05-05T23:13:25.304Z,2.15
2023-05-05T23:15:53.982Z,2.21
2023-05-05T23:18:22.587Z,2.01
2023-05-05T23:20:50.181Z,1.98
2023-05-05T23:23:18.968Z,1.91
2023-05-05T23:25:47.703Z,2.14
2023-05-05T23:28:16.752Z,2.15
2023-05-05T23:30:45.628Z,2.34
2023-05-05T23:33:14.665Z,2.22
2023-05-05T23:35:41.768Z,2.19
2023-05-05T23:38:09.395Z,2.38
2023-05-05T23:40:37.099Z,2.37
2023-05-05T23:43:04.555Z,2.30
2023-05-05T23:45:31.165Z,2.17
2023-05-05T23:47:57.802Z,2.25
2023-05-05T23:50:25.356Z,2.15
2023-05-05T23:52:54.728Z,2.10
2023-05-05T23:55:21.577Z,1.92
2023-05-05T23:57:49.136Z,2.19
